Time;durP1;ratioP1;P1;durP2;ratioP2;P2;SDS_P1;SDS_P2;PMS_P1;PMS_P2;Temp;Humidity;BMP_temperature;BMP_pressure;BME280_temperature;BME280_humidity;BME280_pressure;Samples;Min_cycle;Max_cycle;Signal;HPM_P1;HPM_P2
2022/02/08 00:00:13;;;;;;;1.80;1.70;;;;;;;5.51;63.46;98486.34;6303084;22;19995;-90
2022/02/08 00:02:43;;;;;;;2.67;1.80;;;;;;;5.99;62.93;98577.00;6303289;22;20007;-90
2022/02/08 00:05:11;;;;;;;1.98;1.60;;;;;;;6.06;62.75;98577.13;6303569;22;20010;-89
2022/02/08 00:07:38;;;;;;;1.70;1.60;;;;;;;5.58;62.37;98504.81;6307190;22;20074;-89
2022/02/08 00:10:04;;;;;;;1.88;1.70;;;;;;;5.15;62.17;98451.97;6305465;22;20003;-89
2022/02/08 00:12:29;;;;;;;1.83;1.65;;;;;;;5.91;61.99;98556.06;6305497;22;20031;-89
2022/02/08 00:14:55;;;;;;;2.47;2.27;;;;;;;5.20;61.65;98434.00;6305202;22;20068;-89
2022/02/08 00:17:21;;;;;;;1.70;1.60;;;;;;;5.99;60.95;98586.66;6305279;22;19995;-88
2022/02/08 00:19:46;;;;;;;1.60;1.50;;;;;;;5.88;61.16;98573.91;6305314;22;20444;-89
2022/02/08 00:22:12;;;;;;;1.93;1.73;;;;;;;6.14;61.14;98616.38;6306690;22;20061;-89
2022/02/08 00:24:37;;;;;;;10.03;5.57;;;;;;;4.60;61.24;98361.31;6307444;22;19999;-89
2022/02/08 00:27:03;;;;;;;1.77;1.67;;;;;;;6.11;60.97;98639.50;6305255;22;20455;-90
2022/02/08 00:29:28;;;;;;;1.97;1.77;;;;;;;5.96;60.33;98587.00;6306791;22;20086;-90
2022/02/08 00:31:54;;;;;;;2.37;1.70;;;;;;;5.88;60.99;98571.28;6307068;22;19991;-89
2022/02/08 00:34:19;;;;;;;3.03;1.67;;;;;;;5.77;60.38;98582.94;6307064;22;19999;-89
2022/02/08 00:36:45;;;;;;;2.10;1.90;;;;;;;4.56;60.39;98369.66;6304958;22;19999;-89
2022/02/08 00:39:11;;;;;;;2.17;1.73;;;;;;;5.39;60.42;98480.69;6305174;22;19995;-89
2022/02/08 00:41:38;;;;;;;2.03;1.85;;;;;;;6.21;60.46;98621.75;6306727;22;19995;-89
2022/02/08 00:49:02;;;;;;;1.97;1.80;;;;;;;5.48;59.56;98486.69;6306959;22;20424;-90
2022/02/08 00:51:39;;;;;;;2.10;1.77;;;;;;;6.27;60.26;98611.41;6304729;22;20006;-89
2022/02/08 00:54:04;;;;;;;1.77;1.63;;;;;;;5.45;59.40;98492.28;6306309;22;20355;-89
2022/02/08 00:56:30;;;;;;;2.55;1.50;;;;;;;5.51;59.17;98509.09;6306516;22;19999;-89
2022/02/08 00:58:55;;;;;;;1.85;1.45;;;;;;;5.73;59.49;98535.34;6306373;22;20437;-89
2022/02/08 01:01:20;;;;;;;1.83;1.70;;;;;;;5.41;59.32;98483.13;6304651;22;20030;-89
2022/02/08 01:03:46;;;;;;;2.23;1.70;;;;;;;5.75;59.34;98549.06;6306368;22;20437;-89
2022/02/08 01:06:11;;;;;;;1.60;1.50;;;;;;;6.11;59.25;98610.69;6306927;22;19999;-89
2022/02/08 01:08:39;;;;;;;1.90;1.50;;;;;;;6.08;59.24;98590.06;6305090;22;20406;-89
2022/02/08 01:11:07;;;;;;;3.15;2.40;;;;;;;5.62;58.67;98529.66;6306481;22;19995;-89
2022/02/08 01:13:32;;;;;;;2.70;1.97;;;;;;;5.56;58.42;98518.06;6304591;22;20086;-89
2022/02/08 01:15:58;;;;;;;1.88;1.40;;;;;;;5.49;58.64;98517.13;6306441;22;20050;-89
2022/02/08 01:18:26;;;;;;;1.50;1.40;;;;;;;5.95;58.41;98596.66;6304947;22;20060;-88
2022/02/08 01:20:52;;;;;;;2.50;1.70;;;;;;;6.05;58.31;98604.31;6304731;22;20488;-88
2022/02/08 01:23:18;;;;;;;1.73;1.33;;;;;;;5.30;58.32;98512.31;6304706;22;20045;-89
2022/02/08 01:25:48;;;;;;;1.83;1.67;;;;;;;5.71;58.47;98536.50;6306593;22;19999;-89
2022/02/08 01:28:39;;;;;;;1.80;1.70;;;;;;;5.20;58.13;98461.94;6304448;22;20446;-88
2022/02/08 01:31:09;;;;;;;1.97;1.87;;;;;;;5.85;58.29;98582.09;6306468;22;19994;-89
2022/02/08 01:33:53;;;;;;;2.20;1.60;;;;;;;5.66;57.75;98531.78;6304760;22;20010;-89
2022/02/08 01:39:23;;;;;;;1.50;1.40;;;;;;;6.14;57.88;98608.53;6306035;22;20352;-89
2022/02/08 01:44:36;;;;;;;2.13;1.60;;;;;;;5.52;57.54;98511.56;6306415;22;20006;-90
2022/02/08 01:47:17;;;;;;;2.70;1.40;;;;;;;5.66;57.29;98560.56;6304142;22;20000;-89
2022/02/08 01:49:58;;;;;;;1.58;1.48;;;;;;;5.76;57.11;98565.59;6304556;22;20023;-89
2022/02/08 01:52:24;;;;;;;1.65;1.55;;;;;;;5.84;57.20;98568.19;6305800;22;19991;-89
2022/02/08 01:54:51;;;;;;;1.73;1.63;;;;;;;6.17;57.15;98639.63;6305769;22;20010;-90
2022/02/08 01:57:17;;;;;;;2.17;1.97;;;;;;;5.28;57.02;98519.50;6306010;22;19991;-89
2022/02/08 01:59:42;;;;;;;2.37;1.80;;;;;;;5.36;57.03;98536.00;6304419;22;20057;-90
2022/02/08 02:02:07;;;;;;;1.88;1.77;;;;;;;5.16;57.08;98495.47;6304581;22;20057;-89
2022/02/08 02:04:33;;;;;;;2.00;1.90;;;;;;;5.90;56.90;98634.81;6305970;22;19999;-89
2022/02/08 02:07:01;;;;;;;2.33;2.10;;;;;;;5.88;57.24;98592.22;6304178;22;20385;-89
2022/02/08 02:09:26;;;;;;;2.50;2.20;;;;;;;5.67;57.15;98567.44;6304433;22;19995;-90
2022/02/08 02:11:57;;;;;;;2.50;2.30;;;;;;;6.03;56.45;98648.22;6305747;22;20004;-89
2022/02/08 02:14:23;;;;;;;2.15;2.00;;;;;;;5.59;56.53;98598.09;6304927;22;19999;-89
2022/02/08 02:16:58;;;;;;;2.43;2.23;;;;;;;5.27;57.04;98518.69;6304865;22;20007;-89
2022/02/08 02:19:27;;;;;;;2.50;2.30;;;;;;;5.91;56.58;98625.97;6305645;22;19995;-89
2022/02/08 02:21:55;;;;;;;3.10;2.42;;;;;;;5.58;57.10;98578.13;6304515;22;20007;-89
2022/02/08 02:24:20;;;;;;;2.60;2.40;;;;;;;5.69;56.86;98615.22;6306114;22;20019;-89
2022/02/08 02:26:46;;;;;;;2.38;2.17;;;;;;;4.20;56.45;98349.16;6306107;22;20066;-89
2022/02/08 02:29:16;;;;;;;2.70;2.50;;;;;;;5.66;56.85;98596.41;6306105;22;20021;-89
2022/02/08 02:31:43;;;;;;;2.90;2.60;;;;;;;5.31;56.55;98576.75;6306120;22;20432;-89
2022/02/08 02:34:09;;;;;;;3.33;2.60;;;;;;;5.91;56.63;98624.16;6305809;22;20070;-89
2022/02/08 02:36:38;;;;;;;3.23;2.93;;;;;;;6.02;56.91;98652.66;6305716;22;20440;-90
2022/02/08 02:39:03;;;;;;;3.07;2.77;;;;;;;5.74;56.87;98628.63;6305746;22;19999;-89
2022/02/08 02:41:35;;;;;;;3.20;3.00;;;;;;;4.59;56.07;98453.81;6306329;22;20010;-89
2022/02/08 02:44:04;;;;;;;3.25;2.97;;;;;;;5.39;57.12;98608.13;6305804;22;20053;-89
2022/02/08 02:46:29;;;;;;;2.80;2.53;;;;;;;5.49;56.64;98603.53;6304262;22;20057;-89
2022/02/08 02:48:55;;;;;;;3.10;2.77;;;;;;;5.44;56.54;98587.50;6305875;22;20003;-89
2022/02/08 02:51:23;;;;;;;3.13;2.80;;;;;;;5.03;56.71;98516.94;6304065;22;20344;-89
2022/02/08 02:53:49;;;;;;;2.80;2.60;;;;;;;5.29;56.33;98557.78;6303710;22;20005;-89
2022/02/08 02:56:14;;;;;;;3.80;3.10;;;;;;;5.55;56.17;98602.03;6305437;22;20061;-89
2022/02/08 02:58:40;;;;;;;3.63;3.03;;;;;;;5.20;56.27;98558.75;6304650;22;20064;-89
2022/02/08 03:17:54;;;;;;;5.17;3.50;;;;;;;5.41;55.90;98661.13;6306202;22;20113;-89
2022/02/08 03:20:19;;;;;;;4.00;3.23;;;;;;;4.54;55.91;98516.22;6303868;22;20022;-89
2022/02/08 03:22:45;;;;;;;3.67;3.13;;;;;;;4.50;55.77;98561.97;6303424;22;20107;-89
2022/02/08 03:25:10;;;;;;;3.90;3.43;;;;;;;5.73;56.19;98708.19;6303791;22;19999;-89
2022/02/08 03:27:36;;;;;;;6.00;3.27;;;;;;;5.75;56.08;98724.56;6303770;22;20003;-89
2022/02/08 03:30:02;;;;;;;3.43;3.13;;;;;;;5.01;55.69;98602.63;6305342;22;20458;-89
2022/02/08 03:32:29;;;;;;;5.20;3.57;;;;;;;4.29;55.55;98506.72;6305360;22;20072;-89
2022/02/08 03:34:54;;;;;;;3.43;3.10;;;;;;;5.11;55.47;98556.16;6303634;22;20010;-89
2022/02/08 03:37:20;;;;;;;6.00;3.53;;;;;;;5.75;55.57;98679.22;6303728;22;19999;-89
2022/02/08 03:39:55;;;;;;;5.93;3.60;;;;;;;5.47;55.33;98634.28;6303987;22;19999;-88
2022/02/08 03:42:25;;;;;;;5.07;3.27;;;;;;;5.02;55.74;98551.94;6305804;22;20007;-89
2022/02/08 03:44:51;;;;;;;3.23;2.93;;;;;;;3.47;55.59;98307.44;6307440;22;20019;-89
2022/02/08 03:47:18;;;;;;;4.03;3.27;;;;;;;5.73;55.02;98684.63;6305853;22;20359;-89
2022/02/08 03:49:44;;;;;;;3.23;3.00;;;;;;;5.92;55.62;98727.97;6306047;22;20068;-89
2022/02/08 03:52:10;;;;;;;3.30;3.00;;;;;;;5.17;55.24;98603.56;6305691;22;19996;-90
2022/02/08 03:54:36;;;;;;;3.43;3.13;;;;;;;5.93;55.07;98742.72;6313903;22;19999;-88
2022/02/08 03:57:05;;;;;;;3.37;3.07;;;;;;;5.75;55.53;98721.13;6337359;22;19983;-87
2022/02/08 03:59:30;;;;;;;3.57;3.27;;;;;;;5.55;55.05;98723.28;6337160;22;20017;-88
2022/02/08 04:07:10;;;;;;;4.93;3.37;;;;;;;5.05;55.36;98708.56;6308229;22;20009;-89
2022/02/08 04:09:35;;;;;;;4.23;3.30;;;;;;;5.39;55.50;98728.53;6306308;22;19995;-90
2022/02/08 04:12:06;;;;;;;3.70;3.00;;;;;;;4.57;55.22;98636.13;6306168;22;19994;-90
2022/02/08 04:17:04;;;;;;;3.33;3.03;;;;;;;5.58;55.52;98779.75;6307425;22;20436;-90
2022/02/08 04:19:36;;;;;;;3.83;3.40;;;;;;;5.22;55.64;98708.59;6305461;22;20025;-90
2022/02/08 04:33:07;;;;;;;3.27;2.97;;;;;;;5.78;55.97;98830.78;6307429;22;20007;-90
2022/02/08 04:40:48;;;;;;;4.40;3.30;;;;;;;6.12;55.34;98877.81;6336811;22;20039;-88
2022/02/08 04:46:09;;;;;;;4.43;3.10;;;;;;;4.54;56.17;98709.66;6310691;22;20006;-89
2022/02/08 04:48:48;;;;;;;3.67;3.30;;;;;;;5.25;55.91;98802.47;6305158;22;20460;-90
2022/02/08 04:51:19;;;;;;;3.90;3.60;;;;;;;5.31;56.41;98860.22;6306504;22;20003;-88
2022/02/08 04:53:56;;;;;;;4.47;3.88;;;;;;;5.16;56.33;98792.94;6304920;22;19999;-88
2022/02/08 04:56:38;;;;;;;3.97;3.00;;;;;;;5.22;57.30;98855.16;6305104;22;20006;-89
2022/02/08 05:00:14;;;;;;;2.93;2.67;;;;;;;4.24;58.36;98742.38;6304942;22;19995;-88
2022/02/08 05:53:31;;;;;;;8.67;7.27;;;;;;;2.68;64.32;98830.00;5171001;27;20380;-85
2022/02/08 05:55:57;;;;;;;7.53;6.83;;;;;;;3.60;64.68;99007.25;5177968;27;20015;-86
2022/02/08 06:01:04;;;;;;;11.45;9.07;;;;;;;2.64;64.93;98861.69;6096306;22;20042;-85
2022/02/08 06:03:30;;;;;;;11.30;8.17;;;;;;;2.81;65.19;98913.06;5095907;28;20009;-83
2022/02/08 06:05:56;;;;;;;7.53;6.53;;;;;;;2.65;65.31;98863.34;5095967;28;20038;-82
2022/02/08 06:08:21;;;;;;;5.60;5.07;;;;;;;1.80;65.71;98774.00;5095763;28;20029;-83
2022/02/08 06:10:50;;;;;;;6.47;5.73;;;;;;;1.94;65.82;98816.97;5095758;28;20024;-85
2022/02/08 06:13:17;;;;;;;8.80;7.20;;;;;;;2.53;66.02;98902.63;5095426;28;20015;-84
2022/02/08 06:15:45;;;;;;;8.17;6.90;;;;;;;1.72;66.15;98799.91;5095107;28;20005;-82
2022/02/08 06:18:10;;;;;;;7.40;5.87;;;;;;;1.43;66.61;98747.06;5095531;28;20005;-85
2022/02/08 06:20:36;;;;;;;8.03;7.17;;;;;;;1.22;67.27;98739.44;5095268;28;20033;-81
2022/02/08 06:23:04;;;;;;;6.80;6.13;;;;;;;2.40;66.92;98867.44;5095361;28;20072;-83
2022/02/08 06:25:30;;;;;;;8.90;6.90;;;;;;;4.17;66.81;99182.88;5095045;28;20023;-84
2022/02/08 06:27:55;;;;;;;8.87;6.90;;;;;;;1.10;66.89;98698.94;5077862;28;20068;-82
2022/02/08 06:30:22;;;;;;;11.23;7.67;;;;;;;1.19;67.27;98711.13;5095362;28;20012;-81
2022/02/08 06:32:50;;;;;;;11.27;8.03;;;;;;;1.55;67.31;98796.22;5095140;28;20004;-82
2022/02/08 06:35:23;;;;;;;10.13;8.33;;;;;;;1.23;67.27;98684.69;5094461;28;20001;-82
2022/02/08 06:37:48;;;;;;;13.07;10.63;;;;;;;2.34;67.90;98904.47;5094498;28;20034;-83
2022/02/08 06:40:14;;;;;;;6.53;5.40;;;;;;;1.22;67.89;98774.06;5094572;28;20012;-82
2022/02/08 06:42:42;;;;;;;6.10;5.40;;;;;;;1.16;67.30;98768.59;5094706;28;20021;-83
2022/02/08 06:45:09;;;;;;;6.10;5.50;;;;;;;1.25;67.88;98778.16;5094482;28;20012;-82
2022/02/08 06:47:35;;;;;;;7.17;5.40;;;;;;;1.27;67.52;98803.06;5145291;22;20033;-82
2022/02/08 06:50:03;;;;;;;6.83;5.53;;;;;;;2.21;67.91;98959.44;5074604;28;20013;-83
2022/02/08 06:52:28;;;;;;;6.13;5.50;;;;;;;0.91;68.00;98747.38;5324062;23;20758;-85
2022/02/08 06:54:54;;;;;;;6.60;5.70;;;;;;;0.99;67.85;98809.09;5080725;28;20021;-81
2022/02/08 06:57:19;;;;;;;6.00;4.73;;;;;;;1.03;68.50;98791.44;5285142;23;20041;-84
2022/02/08 06:59:50;;;;;;;6.27;5.43;;;;;;;0.99;68.38;98774.47;5060662;28;20077;-84
2022/02/08 07:02:16;;;;;;;13.63;8.77;;;;;;;2.21;68.43;99011.53;5060679;28;20024;-84
2022/02/08 07:04:42;;;;;;;7.97;6.50;;;;;;;1.58;68.79;98897.41;5060828;28;20085;-85
2022/02/08 07:07:12;;;;;;;7.80;6.73;;;;;;;1.35;68.39;98825.78;5060656;28;20028;-85
2022/02/08 07:09:38;;;;;;;6.77;5.60;;;;;;;0.86;69.26;98787.72;5168789;22;20076;-82
2022/02/08 07:12:04;;;;;;;6.17;5.43;;;;;;;0.54;69.17;98749.78;5056824;28;20022;-82
2022/02/08 07:14:32;;;;;;;5.67;5.17;;;;;;;2.62;69.43;99079.94;5059623;28;20034;-83
2022/02/08 07:16:57;;;;;;;7.10;5.67;;;;;;;1.89;68.95;98918.09;5407893;23;20029;-81
2022/02/08 07:19:23;;;;;;;8.93;6.77;;;;;;;1.15;68.93;98845.75;5060539;28;20021;-84
2022/02/08 07:21:49;;;;;;;7.67;5.47;;;;;;;0.69;69.00;98777.97;5060065;28;20044;-80
2022/02/08 09:02:01;;;;;;;14.85;12.30;;;;;;;1.75;70.20;99119.72;5931782;23;20042;-84
2022/02/08 09:37:17;;;;;;;8.63;7.30;;;;;;;1.64;68.52;98962.88;4942081;23;20046;-84
2022/02/08 10:06:41;;;;;;;13.43;6.10;;;;;;;3.85;65.27;99224.28;4949305;26;20082;-80
2022/02/08 10:09:10;;;;;;;7.73;5.93;;;;;;;3.37;65.17;99158.19;4960074;28;20887;-83
2022/02/08 10:22:42;;;;;;;6.00;5.37;;;;;;;2.44;64.62;98894.84;5072354;23;20058;-85
2022/02/08 10:25:11;;;;;;;8.33;6.40;;;;;;;2.49;63.96;98890.00;5016614;28;20519;-87
2022/02/08 10:27:41;;;;;;;7.90;6.00;;;;;;;2.51;63.89;98894.13;5011915;28;20018;-87
2022/02/08 10:38:40;;;;;;;7.77;5.50;;;;;;;4.74;62.44;99223.53;4995685;28;20116;-91
2022/02/08 10:41:55;;;;;;;6.77;4.30;;;;;;;5.78;60.28;99343.41;4991691;28;20061;-91
2022/02/08 10:44:24;;;;;;;8.73;6.20;;;;;;;5.33;61.04;99264.00;4994124;28;20038;-88
2022/02/08 10:46:59;;;;;;;7.63;5.77;;;;;;;5.78;59.20;99331.13;4993604;28;20102;-89
2022/02/08 10:49:25;;;;;;;9.13;5.97;;;;;;;5.42;61.12;99288.44;4977793;28;20062;-91
2022/02/08 10:51:54;;;;;;;10.47;7.03;;;;;;;5.55;60.94;99243.53;4977727;28;20026;-90
2022/02/08 10:54:44;;;;;;;10.30;6.33;;;;;;;5.77;60.73;99292.78;4994087;28;20553;-91
2022/02/08 10:57:22;;;;;;;7.37;5.13;;;;;;;4.42;61.07;99080.25;4993910;28;20038;-91
2022/02/08 10:59:58;;;;;;;7.70;5.13;;;;;;;5.20;60.51;99215.59;4992009;28;20054;-90
2022/02/08 11:02:29;;;;;;;6.40;4.87;;;;;;;5.41;60.31;99239.69;5001260;28;20034;-92
2022/02/08 11:05:22;;;;;;;7.40;5.32;;;;;;;5.30;60.20;99224.22;4984424;28;20035;-91
2022/02/08 11:08:20;;;;;;;7.20;6.27;;;;;;;6.21;59.48;99356.53;4993804;28;20495;-90
2022/02/08 11:16:03;;;;;;;6.23;5.13;;;;;;;6.03;59.08;99298.91;4980456;28;20029;-91
2022/02/08 11:26:30;;;;;;;3.97;3.13;;;;;;;5.92;56.52;99222.34;4991964;28;20026;-91
2022/02/08 11:28:56;;;;;;;3.30;3.00;;;;;;;6.38;57.09;99307.63;4978517;28;20507;-91
2022/02/08 11:31:35;;;;;;;4.40;3.17;;;;;;;5.75;57.17;99161.97;4975747;28;20042;-91
2022/02/08 11:49:52;;;;;;;5.10;3.20;;;;;;;6.31;54.24;99231.38;4990750;28;20029;-95
2022/02/08 12:06:46;;;;;;;3.60;3.13;;;;;;;7.04;53.12;99382.19;4993750;28;20573;-94
2022/02/08 12:08:41;;;;;;;4.18;2.83;;;;;;;6.78;53.34;99330.59;4979441;28;20034;-90
2022/02/08 12:55:36;;;;;;;5.70;4.30;;;;;;;6.77;50.83;99444.41;4989732;28;20030;-93
2022/02/08 12:57:58;;;;;;;8.93;5.93;;;;;;;5.28;50.71;99210.47;4989540;28;20042;-92
2022/02/08 13:00:41;;;;;;;6.17;4.30;;;;;;;6.32;51.23;99398.22;4992012;28;20042;-93
2022/02/08 14:08:27;;;;;;;7.55;6.32;;;;;;;6.71;50.56;99505.38;4996594;28;20041;-93
2022/02/08 14:21:38;;;;;;;10.85;8.38;;;;;;;6.65;50.66;99532.19;4988009;28;20058;-92
2022/02/08 14:24:33;;;;;;;10.07;8.18;;;;;;;6.36;50.65;99506.25;4989530;28;20035;-92
2022/02/08 14:29:54;;;;;;;8.02;6.25;;;;;;;6.98;51.13;99588.38;4994843;28;20069;-92
2022/02/08 14:32:29;;;;;;;9.88;6.88;;;;;;;6.89;51.27;99576.16;4993771;28;20011;-92
2022/02/08 15:09:55;;;;;;;7.97;5.68;;;;;;;6.85;50.56;99599.28;4999077;28;20100;-93
2022/02/08 15:12:22;;;;;;;8.80;6.82;;;;;;;6.01;50.43;99457.28;4987566;28;20026;-93
2022/02/08 15:14:54;;;;;;;10.48;7.85;;;;;;;6.32;50.73;99508.34;4984135;28;20034;-94
2022/02/08 15:17:19;;;;;;;;;;;;;;;6.91;50.74;99598.66;4994893;28;20107;-93
2022/02/08 15:19:49;;;;;;;14.13;8.98;;;;;;;7.02;51.01;99608.09;4993847;28;20449;-93
2022/02/08 15:22:16;;;;;;;16.00;10.77;;;;;;;6.92;51.35;99586.38;4984158;28;20047;-93
2022/02/08 15:24:42;;;;;;;10.90;7.70;;;;;;;6.39;50.52;99492.81;4979255;28;20492;-92
2022/02/08 15:27:09;;;;;;;12.27;7.53;;;;;;;6.74;50.36;99557.53;4989912;28;20029;-94
2022/02/08 15:29:35;;;;;;;10.38;7.80;;;;;;;7.07;50.36;99611.06;4985039;28;20113;-93
2022/02/08 15:32:02;;;;;;;15.23;8.48;;;;;;;6.42;50.34;99518.75;4987264;28;20032;-93
2022/02/08 15:34:28;;;;;;;10.18;7.03;;;;;;;7.04;48.94;99634.19;4993279;28;20030;-93
2022/02/08 15:36:55;;;;;;;13.48;8.00;;;;;;;7.03;48.97;99667.50;4991240;28;20038;-92
2022/02/08 15:39:21;;;;;;;10.75;8.20;;;;;;;7.00;49.04;99638.91;4996732;28;20190;-92
2022/02/08 15:41:47;;;;;;;12.43;9.00;;;;;;;6.43;49.14;99537.91;5014869;28;20019;-91
2022/02/08 15:44:19;;;;;;;10.55;7.55;;;;;;;7.00;48.52;99633.66;5017990;28;20029;-92
2022/02/08 15:46:46;;;;;;;8.52;5.47;;;;;;;6.60;48.63;99577.25;5016871;28;20038;-92
2022/02/08 15:49:12;;;;;;;8.50;6.18;;;;;;;6.37;47.91;99550.66;4996090;28;20030;-92
2022/02/08 15:51:42;;;;;;;6.63;5.20;;;;;;;5.46;47.44;99407.63;4999998;28;20019;-92
2022/02/08 16:22:55;;;;;;;5.93;4.72;;;;;;;6.79;46.10;99702.22;4992819;28;20593;-92
2022/02/08 16:54:48;;;;;;;8.77;6.60;;;;;;;6.10;46.04;99694.09;4992695;28;20069;-90
2022/02/08 16:59:47;;;;;;;8.15;5.45;;;;;;;6.01;45.64;99695.78;4992861;28;20440;-91
2022/02/08 17:02:19;;;;;;;26.60;13.48;;;;;;;6.14;46.04;99719.03;4991873;28;20152;-91
2022/02/08 17:04:45;;;;;;;18.02;7.95;;;;;;;6.02;45.93;99724.47;4991466;28;20422;-91
2022/02/08 17:07:11;;;;;;;16.05;9.35;;;;;;;6.47;45.87;99812.03;4992266;28;20026;-91
2022/02/08 17:09:58;;;;;;;15.98;9.32;;;;;;;6.53;46.40;99817.53;4992219;28;20121;-91
2022/02/08 17:12:55;;;;;;;13.03;8.87;;;;;;;5.65;46.54;99706.06;4991077;28;20142;-91
2022/02/08 17:15:35;;;;;;;13.50;9.60;;;;;;;5.90;46.83;99788.47;4991605;28;20053;-91
2022/02/08 17:34:54;;;;;;;23.20;14.07;;;;;;;6.13;47.82;99865.00;4962463;28;20500;-92
2022/02/08 17:47:44;;;;;;;15.77;10.23;;;;;;;4.55;47.78;99625.50;4992650;28;20538;-92
2022/02/08 17:50:13;;;;;;;12.80;10.70;;;;;;;5.80;47.95;99839.22;4992378;28;20033;-91
2022/02/08 17:52:40;;;;;;;15.13;10.70;;;;;;;5.38;48.08;99815.97;4992577;28;20076;-92
2022/02/08 17:55:07;;;;;;;16.75;11.25;;;;;;;6.04;47.93;99916.50;4991459;28;20030;-91
2022/02/08 17:57:32;;;;;;;18.52;12.32;;;;;;;5.65;48.44;99844.91;4991513;28;20032;-92
2022/02/08 17:59:58;;;;;;;20.17;13.60;;;;;;;5.60;48.54;99856.75;4991352;28;20026;-92
2022/02/08 18:02:24;;;;;;;17.60;11.73;;;;;;;5.35;48.86;99856.34;4991215;28;20480;-92
2022/02/08 18:04:53;;;;;;;18.97;12.60;;;;;;;5.65;49.05;99904.31;4991593;28;20037;-92
2022/02/08 18:07:21;;;;;;;16.33;11.13;;;;;;;5.78;48.85;99945.97;4991432;28;20034;-91
2022/02/08 18:09:48;;;;;;;18.03;12.70;;;;;;;5.53;49.33;99905.41;4991592;28;20483;-93
2022/02/08 18:12:14;;;;;;;22.13;14.00;;;;;;;5.35;49.13;99881.69;4991269;28;20042;-92
2022/02/08 18:14:48;;;;;;;20.98;15.52;;;;;;;5.31;49.26;99878.53;4991170;28;20026;-91
2022/02/08 18:17:18;;;;;;;18.00;12.43;;;;;;;5.34;49.17;99873.00;4991432;28;20062;-91
2022/02/08 18:19:51;;;;;;;19.17;12.20;;;;;;;5.51;48.89;99923.06;4991636;28;20113;-92
2022/02/08 19:22:32;;;;;;;;;;;;;;;5.11;49.33;100032.06;5199620;23;20112;-88
2022/02/08 19:24:58;;;;;;;14.73;9.03;;;;;;;2.86;49.17;99706.06;5017431;28;19949;-87
2022/02/08 19:27:24;;;;;;;13.70;9.57;;;;;;;3.57;49.05;99754.13;5029409;28;20045;-86
2022/02/08 19:29:49;;;;;;;14.03;10.07;;;;;;;3.63;49.14;99800.59;5029918;28;20029;-88
2022/02/08 19:32:14;;;;;;;15.60;10.30;;;;;;;4.85;49.30;99956.75;5018261;28;20032;-88
2022/02/08 19:34:42;;;;;;;17.33;11.10;;;;;;;4.13;49.02;99887.81;5018689;28;20022;-88
2022/02/08 19:37:10;;;;;;;13.77;9.53;;;;;;;2.97;49.15;99687.78;5020638;28;20065;-87
2022/02/08 19:39:45;;;;;;;16.93;9.93;;;;;;;2.31;49.01;99554.19;5022725;28;20034;-87
2022/02/08 19:42:12;;;;;;;12.70;8.93;;;;;;;5.32;49.20;100102.72;5003753;28;20056;-88
2022/02/08 19:44:45;;;;;;;14.47;9.13;;;;;;;4.35;49.04;99918.22;5005055;28;20021;-87
2022/02/08 19:50:05;;;;;;;13.53;8.93;;;;;;;4.01;49.09;99846.22;5116368;23;20065;-88
2022/02/08 19:52:33;;;;;;;11.87;8.60;;;;;;;3.72;49.06;99853.88;5032230;28;20014;-86
2022/02/08 19:55:21;;;;;;;15.00;9.57;;;;;;;3.59;48.96;99840.16;5006988;28;20116;-87
2022/02/08 19:57:50;;;;;;;13.70;8.97;;;;;;;3.03;49.05;99715.16;5034399;28;20048;-87
2022/02/08 20:00:20;;;;;;;12.17;9.10;;;;;;;3.20;48.92;99743.28;5032664;28;20026;-88
2022/02/08 20:02:50;;;;;;;15.80;10.57;;;;;;;3.45;48.97;99776.84;5016908;28;20025;-86
2022/02/08 20:05:16;;;;;;;14.77;9.20;;;;;;;3.57;49.01;99806.34;5038303;28;20048;-88
2022/02/08 20:07:44;;;;;;;14.10;10.10;;;;;;;3.24;49.22;99742.09;5037356;28;20026;-88
2022/02/08 20:10:12;;;;;;;11.23;8.33;;;;;;;3.87;48.65;99901.41;5033377;28;20057;-88
2022/02/08 20:12:45;;;;;;;10.87;6.83;;;;;;;2.22;47.99;99633.06;5018236;28;20028;-86
2022/02/08 20:15:13;;;;;;;11.60;7.13;;;;;;;2.31;48.02;99611.53;5015097;28;20055;-88
2022/02/08 20:17:43;;;;;;;9.30;6.23;;;;;;;2.29;48.03;99613.41;5030123;28;20089;-87
2022/02/08 20:23:05;;;;;;;10.07;6.53;;;;;;;3.68;46.90;99886.38;5073158;23;20062;-87
2022/02/08 20:25:30;;;;;;;15.23;6.77;;;;;;;4.86;47.20;100063.06;5020612;28;20089;-86
2022/02/08 20:28:10;;;;;;;9.40;6.00;;;;;;;3.55;47.17;99860.47;5025068;28;20026;-87
2022/02/08 20:30:36;;;;;;;8.90;5.83;;;;;;;2.84;47.37;99707.97;5012508;28;20053;-85
2022/02/08 20:33:05;;;;;;;9.67;6.20;;;;;;;3.62;47.17;99864.22;5022201;28;20071;-85
2022/02/08 20:35:33;;;;;;;11.57;7.00;;;;;;;3.19;47.07;99815.53;5027241;28;20070;-86
2022/02/08 20:38:04;;;;;;;8.73;6.30;;;;;;;2.95;47.50;99808.81;5030600;28;20025;-84
2022/02/08 20:41:04;;;;;;;8.67;5.63;;;;;;;4.32;46.66;99978.59;5012075;28;20037;-87
2022/02/08 20:43:43;;;;;;;8.10;5.53;;;;;;;3.73;46.44;99910.38;4958841;29;20142;-85
2022/02/08 20:52:23;;;;;;;8.80;4.70;;;;;;;3.13;47.25;99852.53;5561072;23;20060;-82
2022/02/08 20:55:03;;;;;;;8.63;5.93;;;;;;;3.13;47.33;99868.19;5038776;28;20013;-83
2022/02/08 20:57:40;;;;;;;10.40;6.57;;;;;;;3.45;47.17;99872.59;5039233;28;20018;-86
2022/02/08 21:00:13;;;;;;;11.47;6.60;;;;;;;1.87;47.40;99613.25;5079223;23;20076;-82
2022/02/08 21:02:53;;;;;;;12.35;7.13;;;;;;;3.25;47.71;99855.13;5039138;28;20052;-83
2022/02/08 21:08:16;;;;;;;8.63;6.30;;;;;;;2.16;47.97;99644.81;5211708;23;20122;-84
2022/02/08 21:10:47;;;;;;;10.80;7.13;;;;;;;2.15;48.12;99652.75;5038796;28;20014;-85
2022/02/08 21:13:15;;;;;;;14.00;8.35;;;;;;;2.14;48.17;99661.50;5038797;28;20041;-85
2022/02/08 21:15:43;;;;;;;11.80;7.73;;;;;;;4.54;48.33;100129.31;5038989;28;20010;-85
2022/02/08 21:18:09;;;;;;;11.10;6.33;;;;;;;1.83;48.87;99634.44;5038321;28;20094;-85
2022/02/08 21:20:34;;;;;;;11.37;7.53;;;;;;;1.96;48.92;99660.34;5021634;28;20010;-85
2022/02/08 21:23:02;;;;;;;11.67;6.93;;;;;;;3.13;48.97;99876.03;5039141;28;20034;-85
2022/02/08 21:25:38;;;;;;;;;;;;;;;;;;;;;
2022/02/08 21:28:06;;;;;;;14.63;7.90;;;;;;;3.01;49.25;99845.69;5038700;28;20026;-88
2022/02/08 21:49:14;;;;;;;10.63;6.40;;;;;;;2.66;49.18;99847.63;5481421;23;20049;-83
2022/02/08 21:54:36;;;;;;;8.77;5.73;;;;;;;4.61;49.43;100158.41;5298332;23;20145;-83
2022/02/08 21:57:05;;;;;;;10.23;6.03;;;;;;;4.60;49.24;100188.13;5038209;28;20010;-84
2022/02/08 22:02:06;;;;;;;11.87;6.80;;;;;;;2.86;48.96;99920.72;5224436;23;20054;-86
2022/02/08 22:04:32;;;;;;;7.80;4.47;;;;;;;1.96;48.76;99735.84;5021399;28;20081;-84
2022/02/08 22:09:55;;;;;;;5.50;3.77;;;;;;;2.18;48.56;99807.00;5497113;23;20053;-85
2022/02/08 22:18:29;;;;;;;6.27;3.70;;;;;;;2.14;48.07;99843.81;5677689;23;20050;-86
2022/02/08 22:23:30;;;;;;;4.90;3.60;;;;;;;2.59;48.32;99851.66;5038377;28;20044;-87
2022/02/08 22:36:47;;;;;;;5.88;3.90;;;;;;;2.38;48.39;99899.28;5006443;23;20080;-86
2022/02/08 22:39:19;;;;;;;6.27;3.73;;;;;;;3.19;48.94;100039.91;5041422;28;20046;-84
2022/02/08 22:46:58;;;;;;;5.20;3.70;;;;;;;2.03;48.96;99825.59;5510306;23;20076;-83
2022/02/08 23:02:27;;;;;;;6.50;3.60;;;;;;;1.03;49.46;99683.09;5372748;23;20080;-88
2022/02/08 23:04:52;;;;;;;4.67;3.60;;;;;;;1.78;49.74;99800.56;5040805;28;20022;-87
2022/02/08 23:07:25;;;;;;;4.83;3.53;;;;;;;2.73;49.70;99921.81;5196852;23;20094;-86
2022/02/08 23:10:00;;;;;;;6.40;3.90;;;;;;;2.34;49.63;99856.19;5041117;28;20014;-86
2022/02/08 23:15:22;;;;;;;5.63;4.00;;;;;;;2.44;50.19;99895.38;5524455;23;20263;-84
2022/02/08 23:39:32;;;;;;;6.53;5.73;;;;;;;1.96;51.04;99915.53;5151216;23;20030;-82
2022/02/08 23:42:04;;;;;;;6.23;4.57;;;;;;;1.73;50.90;99871.19;5040574;28;20072;-83
2022/02/08 23:44:34;;;;;;;7.33;4.40;;;;;;;1.80;51.48;99895.84;5040497;28;20021;-83
2022/02/08 23:49:40;;;;;;;10.33;5.30;;;;;;;1.67;51.63;99876.88;4824210;26;20049;-83
2022/02/08 23:52:11;;;;;;;8.27;4.70;;;;;;;1.30;51.75;99839.69;5001476;28;20011;-84
2022/02/08 23:57:16;;;;;;;9.63;5.23;;;;;;;4.10;51.59;100243.47;4999508;28;20102;-83
2022/02/08 23:59:47;;;;;;;5.77;4.17;;;;;;;1.31;51.97;99819.69;5177553;23;20037;-85
